sensor_id;sensor_type;location;lat;lon;timestamp;temperature;humidity
21801;DHT22;11062;51.164;16.924;2022-11-30T03:36:39;26.90;31.20
21801;DHT22;11062;51.164;16.924;2022-11-30T04:40:05;25.70;32.10
21801;DHT22;11062;51.164;16.924;2022-11-30T04:42:31;25.90;32.20
21801;DHT22;11062;51.164;16.924;2022-11-30T04:44:57;25.70;32.10
21801;DHT22;11062;51.164;16.924;2022-11-30T04:47:23;25.90;32.80
21801;DHT22;11062;51.164;16.924;2022-11-30T04:49:52;25.90;32.00
21801;DHT22;11062;51.164;16.924;2022-11-30T04:52:18;25.70;31.80
21801;DHT22;11062;51.164;16.924;2022-11-30T04:54:44;25.90;32.10
21801;DHT22;11062;51.164;16.924;2022-11-30T04:57:12;25.60;32.00
21801;DHT22;11062;51.164;16.924;2022-11-30T04:59:38;25.60;32.20
21801;DHT22;11062;51.164;16.924;2022-11-30T05:02:04;25.70;32.40
21801;DHT22;11062;51.164;16.924;2022-11-30T05:04:30;25.80;32.30
21801;DHT22;11062;51.164;16.924;2022-11-30T05:06:57;26.00;32.20
21801;DHT22;11062;51.164;16.924;2022-11-30T05:09:25;25.90;31.90
21801;DHT22;11062;51.164;16.924;2022-11-30T05:11:57;26.00;32.10
21801;DHT22;11062;51.164;16.924;2022-11-30T05:14:29;26.10;33.00
21801;DHT22;11062;51.164;16.924;2022-11-30T05:16:55;26.00;32.10
21801;DHT22;11062;51.164;16.924;2022-11-30T05:19:21;26.10;32.10
21801;DHT22;11062;51.164;16.924;2022-11-30T05:21:47;25.90;32.10
21801;DHT22;11062;51.164;16.924;2022-11-30T05:24:13;25.70;32.10
21801;DHT22;11062;51.164;16.924;2022-11-30T05:26:39;25.90;32.40
21801;DHT22;11062;51.164;16.924;2022-11-30T05:29:05;25.80;32.30
21801;DHT22;11062;51.164;16.924;2022-11-30T05:31:32;25.80;32.10
21801;DHT22;11062;51.164;16.924;2022-11-30T05:33:59;25.80;32.30
21801;DHT22;11062;51.164;16.924;2022-11-30T05:36:25;25.60;32.30
21801;DHT22;11062;51.164;16.924;2022-11-30T07:21:30;26.20;32.30
21801;DHT22;11062;51.164;16.924;2022-11-30T07:24:02;26.10;32.40
21801;DHT22;11062;51.164;16.924;2022-11-30T07:26:47;26.30;32.30
21801;DHT22;11062;51.164;16.924;2022-11-30T07:29:13;26.30;32.20
21801;DHT22;11062;51.164;16.924;2022-11-30T07:31:39;26.40;32.20
21801;DHT22;11062;51.164;16.924;2022-11-30T07:34:06;26.40;32.10
21801;DHT22;11062;51.164;16.924;2022-11-30T07:36:44;26.40;32.20
21801;DHT22;11062;51.164;16.924;2022-11-30T07:39:14;26.50;32.20
21801;DHT22;11062;51.164;16.924;2022-11-30T07:41:43;26.10;32.30
21801;DHT22;11062;51.164;16.924;2022-11-30T07:44:12;26.40;32.60
21801;DHT22;11062;51.164;16.924;2022-11-30T07:46:38;26.40;32.40
21801;DHT22;11062;51.164;16.924;2022-11-30T07:49:05;26.50;32.30
21801;DHT22;11062;51.164;16.924;2022-11-30T07:51:34;26.40;32.10
21801;DHT22;11062;51.164;16.924;2022-11-30T07:54:00;26.50;32.10
21801;DHT22;11062;51.164;16.924;2022-11-30T19:44:48;28.00;29.50
21801;DHT22;11062;51.164;16.924;2022-11-30T19:47:14;28.00;29.60
21801;DHT22;11062;51.164;16.924;2022-11-30T19:49:41;28.00;29.60
21801;DHT22;11062;51.164;16.924;2022-11-30T19:52:07;28.00;29.60
21801;DHT22;11062;51.164;16.924;2022-11-30T19:54:33;28.00;29.60
21801;DHT22;11062;51.164;16.924;2022-11-30T19:57:02;28.00;29.70
21801;DHT22;11062;51.164;16.924;2022-11-30T19:59:31;28.00;29.60
21801;DHT22;11062;51.164;16.924;2022-11-30T20:01:57;28.00;30.10
21801;DHT22;11062;51.164;16.924;2022-11-30T20:04:24;28.10;29.60
21801;DHT22;11062;51.164;16.924;2022-11-30T20:06:50;28.10;29.60
21801;DHT22;11062;51.164;16.924;2022-11-30T20:09:16;28.00;29.60
21801;DHT22;11062;51.164;16.924;2022-11-30T20:11:45;28.00;29.60
21801;DHT22;11062;51.164;16.924;2022-11-30T20:14:15;28.00;29.60
21801;DHT22;11062;51.164;16.924;2022-11-30T20:16:41;28.00;29.60
21801;DHT22;11062;51.164;16.924;2022-11-30T20:19:14;27.90;29.60
21801;DHT22;11062;51.164;16.924;2022-11-30T20:21:41;28.00;29.60
21801;DHT22;11062;51.164;16.924;2022-11-30T20:24:09;27.90;29.60
21801;DHT22;11062;51.164;16.924;2022-11-30T20:26:38;28.00;29.60
21801;DHT22;11062;51.164;16.924;2022-11-30T20:29:16;28.00;29.60
21801;DHT22;11062;51.164;16.924;2022-11-30T20:31:44;28.00;29.60
21801;DHT22;11062;51.164;16.924;2022-11-30T20:34:10;28.00;29.60
21801;DHT22;11062;51.164;16.924;2022-11-30T20:36:36;28.00;29.60
21801;DHT22;11062;51.164;16.924;2022-11-30T20:39:04;28.00;29.60
21801;DHT22;11062;51.164;16.924;2022-11-30T20:41:30;28.00;29.60
21801;DHT22;11062;51.164;16.924;2022-11-30T20:43:56;27.90;29.50
21801;DHT22;11062;51.164;16.924;2022-11-30T20:46:25;27.90;29.60
21801;DHT22;11062;51.164;16.924;2022-11-30T20:48:52;27.90;29.60
21801;DHT22;11062;51.164;16.924;2022-11-30T20:51:23;27.80;29.70
21801;DHT22;11062;51.164;16.924;2022-11-30T20:53:51;27.90;29.60
21801;DHT22;11062;51.164;16.924;2022-11-30T20:56:17;27.90;29.60
21801;DHT22;11062;51.164;16.924;2022-11-30T20:58:47;27.90;29.60
21801;DHT22;11062;51.164;16.924;2022-11-30T21:01:18;27.90;29.60
21801;DHT22;11062;51.164;16.924;2022-11-30T21:03:50;27.80;29.60
21801;DHT22;11062;51.164;16.924;2022-11-30T21:06:16;27.90;29.60
21801;DHT22;11062;51.164;16.924;2022-11-30T21:08:42;27.80;29.50
21801;DHT22;11062;51.164;16.924;2022-11-30T21:11:12;27.80;29.60
21801;DHT22;11062;51.164;16.924;2022-11-30T21:13:39;27.90;29.60
21801;DHT22;11062;51.164;16.924;2022-11-30T21:16:08;27.80;29.60
21801;DHT22;11062;51.164;16.924;2022-11-30T21:18:39;27.80;29.60
21801;DHT22;11062;51.164;16.924;2022-11-30T21:21:19;27.80;29.60
21801;DHT22;11062;51.164;16.924;2022-11-30T21:23:46;27.70;29.60
21801;DHT22;11062;51.164;16.924;2022-11-30T21:26:24;27.60;29.60
21801;DHT22;11062;51.164;16.924;2022-11-30T21:28:52;27.60;29.70
21801;DHT22;11062;51.164;16.924;2022-11-30T21:31:21;27.60;29.70
21801;DHT22;11062;51.164;16.924;2022-11-30T21:33:48;27.70;29.60
21801;DHT22;11062;51.164;16.924;2022-11-30T21:36:16;27.70;29.60
21801;DHT22;11062;51.164;16.924;2022-11-30T21:38:45;27.70;29.60
21801;DHT22;11062;51.164;16.924;2022-11-30T21:41:12;27.70;29.60
21801;DHT22;11062;51.164;16.924;2022-11-30T21:43:39;27.60;30.00
21801;DHT22;11062;51.164;16.924;2022-11-30T21:46:09;27.60;29.60
21801;DHT22;11062;51.164;16.924;2022-11-30T21:48:42;27.70;29.70
21801;DHT22;11062;51.164;16.924;2022-11-30T21:51:13;27.70;29.60
21801;DHT22;11062;51.164;16.924;2022-11-30T21:53:44;27.70;29.60
21801;DHT22;11062;51.164;16.924;2022-11-30T21:56:17;27.60;29.60
21801;DHT22;11062;51.164;16.924;2022-11-30T21:58:45;27.60;29.60
21801;DHT22;11062;51.164;16.924;2022-11-30T22:01:23;27.70;29.60
21801;DHT22;11062;51.164;16.924;2022-11-30T22:03:52;27.80;29.60
21801;DHT22;11062;51.164;16.924;2022-11-30T22:06:21;27.70;29.50
21801;DHT22;11062;51.164;16.924;2022-11-30T22:08:55;27.70;29.50
21801;DHT22;11062;51.164;16.924;2022-11-30T22:11:22;27.70;29.40
21801;DHT22;11062;51.164;16.924;2022-11-30T22:13:50;27.60;29.50
21801;DHT22;11062;51.164;16.924;2022-11-30T22:16:26;27.70;29.50
21801;DHT22;11062;51.164;16.924;2022-11-30T22:18:54;27.70;29.50
21801;DHT22;11062;51.164;16.924;2022-11-30T22:21:23;27.70;29.50
21801;DHT22;11062;51.164;16.924;2022-11-30T22:23:58;27.80;29.60
21801;DHT22;11062;51.164;16.924;2022-11-30T22:26:29;27.90;29.50
21801;DHT22;11062;51.164;16.924;2022-11-30T22:28:57;27.70;29.40
21801;DHT22;11062;51.164;16.924;2022-11-30T22:31:28;27.60;29.40
21801;DHT22;11062;51.164;16.924;2022-11-30T22:33:55;27.70;29.40
21801;DHT22;11062;51.164;16.924;2022-11-30T22:36:27;27.60;29.40
21801;DHT22;11062;51.164;16.924;2022-11-30T22:38:58;27.60;29.30
21801;DHT22;11062;51.164;16.924;2022-11-30T22:41:25;27.50;29.40
21801;DHT22;11062;51.164;16.924;2022-11-30T22:43:54;27.40;29.40
21801;DHT22;11062;51.164;16.924;2022-11-30T22:46:24;27.40;29.50
21801;DHT22;11062;51.164;16.924;2022-11-30T22:48:53;27.50;29.60
21801;DHT22;11062;51.164;16.924;2022-11-30T22:51:25;27.50;29.60
21801;DHT22;11062;51.164;16.924;2022-11-30T22:53:54;27.40;29.40
21801;DHT22;11062;51.164;16.924;2022-11-30T22:56:28;27.40;29.50
21801;DHT22;11062;51.164;16.924;2022-11-30T22:58:58;27.30;29.40
21801;DHT22;11062;51.164;16.924;2022-11-30T23:01:33;27.30;29.50
21801;DHT22;11062;51.164;16.924;2022-11-30T23:04:07;27.40;29.60
21801;DHT22;11062;51.164;16.924;2022-11-30T23:06:36;27.40;29.50
21801;DHT22;11062;51.164;16.924;2022-11-30T23:09:04;27.30;29.50
21801;DHT22;11062;51.164;16.924;2022-11-30T23:11:31;27.40;29.50
21801;DHT22;11062;51.164;16.924;2022-11-30T23:13:57;27.30;29.40
21801;DHT22;11062;51.164;16.924;2022-11-30T23:16:23;27.40;29.50
21801;DHT22;11062;51.164;16.924;2022-11-30T23:18:53;27.40;29.40
21801;DHT22;11062;51.164;16.924;2022-11-30T23:21:24;27.50;29.40
21801;DHT22;11062;51.164;16.924;2022-11-30T23:23:55;27.50;29.40
21801;DHT22;11062;51.164;16.924;2022-11-30T23:26:29;27.50;29.50
21801;DHT22;11062;51.164;16.924;2022-11-30T23:28:59;27.50;29.40
21801;DHT22;11062;51.164;16.924;2022-11-30T23:31:27;27.50;29.40
21801;DHT22;11062;51.164;16.924;2022-11-30T23:33:54;27.50;29.50
